Time;durP1;ratioP1;P1;durP2;ratioP2;P2;SDS_P1;SDS_P2;PMS_P1;PMS_P2;Temp;Humidity;BMP_temperature;BMP_pressure;BME280_temperature;BME280_humidity;BME280_pressure;Samples;Min_cycle;Max_cycle;Signal;HPM_P1;HPM_P2
2022/07/21 00:00:27;;;;;;;30.65;20.10;;;;;;;19.34;100.00;101718.72;5057940;28;20024;-48
2022/07/21 00:02:53;;;;;;;36.97;20.35;;;;;;;19.35;100.00;101701.44;5057796;28;20475;-48
2022/07/21 00:05:18;;;;;;;34.35;20.98;;;;;;;19.35;100.00;101711.44;5057941;28;20082;-49
2022/07/21 00:07:44;;;;;;;30.77;20.08;;;;;;;19.34;100.00;101713.28;5058277;28;20020;-47
2022/07/21 00:10:10;;;;;;;31.20;20.85;;;;;;;19.43;100.00;101699.59;5059138;28;20166;-47
2022/07/21 00:12:36;;;;;;;32.67;20.05;;;;;;;19.43;100.00;101703.13;5061323;28;20443;-50
2022/07/21 00:15:03;;;;;;;28.23;19.33;;;;;;;19.43;100.00;101692.31;5058137;28;20035;-51
2022/07/21 00:17:28;;;;;;;28.92;20.10;;;;;;;19.44;100.00;101691.28;5056539;28;20036;-49
2022/07/21 00:19:53;;;;;;;35.45;20.15;;;;;;;19.37;100.00;101702.06;5057398;28;20074;-50
2022/07/21 00:22:19;;;;;;;31.83;19.35;;;;;;;19.35;100.00;101711.44;5056165;28;20062;-48
2022/07/21 00:24:44;;;;;;;27.65;18.77;;;;;;;19.30;100.00;101716.63;5056151;28;20621;-49
2022/07/21 00:27:09;;;;;;;35.13;20.20;;;;;;;19.28;100.00;101711.41;5048404;28;20030;-49
2022/07/21 00:29:35;;;;;;;29.35;19.95;;;;;;;19.28;100.00;101710.53;5057413;28;20505;-50
2022/07/21 00:32:00;;;;;;;31.88;19.42;;;;;;;19.27;100.00;101711.59;5057246;28;20046;-49
2022/07/21 00:34:26;;;;;;;29.83;19.63;;;;;;;19.29;100.00;101712.22;5063366;28;20046;-46
2022/07/21 00:36:51;;;;;;;32.25;19.08;;;;;;;19.31;100.00;101715.56;5058619;28;20024;-46
2022/07/21 00:39:16;;;;;;;26.13;18.13;;;;;;;19.41;100.00;101717.94;5056170;28;20107;-47
2022/07/21 00:41:42;;;;;;;28.08;18.23;;;;;;;19.39;100.00;101718.94;5056668;28;20039;-47
2022/07/21 00:44:19;;;;;;;30.00;18.15;;;;;;;19.39;100.00;101708.13;5047997;28;20021;-46
2022/07/21 00:46:44;;;;;;;26.45;17.73;;;;;;;19.36;100.00;101710.38;5056957;28;20162;-48
2022/07/21 00:49:10;;;;;;;30.08;18.77;;;;;;;19.32;100.00;101706.41;5056240;28;20099;-49
2022/07/21 00:51:35;;;;;;;27.25;18.20;;;;;;;19.26;100.00;101715.31;5056479;28;20036;-48
2022/07/21 00:54:00;;;;;;;23.85;17.33;;;;;;;19.21;100.00;101702.38;5056290;28;20813;-48
2022/07/21 00:56:26;;;;;;;28.20;18.50;;;;;;;19.20;100.00;101703.41;5056026;28;20071;-49
2022/07/21 00:58:51;;;;;;;27.80;18.10;;;;;;;19.22;100.00;101709.47;5056282;28;20032;-49
2022/07/21 01:01:16;;;;;;;25.85;17.90;;;;;;;19.18;100.00;101697.38;5056818;28;20024;-51
2022/07/21 01:03:42;;;;;;;26.25;17.40;;;;;;;19.12;100.00;101700.84;5057952;28;20033;-49
2022/07/21 01:06:07;;;;;;;29.75;17.15;;;;;;;19.04;100.00;101682.88;5064097;28;20044;-50
2022/07/21 01:08:32;;;;;;;24.27;17.23;;;;;;;18.96;100.00;101688.47;5053062;28;20455;-47
2022/07/21 01:10:58;;;;;;;32.92;17.92;;;;;;;18.93;100.00;101695.09;5056461;28;20550;-45
2022/07/21 01:13:23;;;;;;;28.52;17.38;;;;;;;18.95;100.00;101690.31;5056968;28;20032;-47
2022/07/21 01:15:48;;;;;;;26.10;16.80;;;;;;;18.99;100.00;101678.06;5064142;28;20566;-47
2022/07/21 01:18:14;;;;;;;27.88;16.77;;;;;;;19.06;100.00;101669.13;5056056;28;20558;-46
2022/07/21 01:20:44;;;;;;;26.92;16.67;;;;;;;18.98;100.00;101678.25;5056528;28;20065;-50
2022/07/21 01:23:10;;;;;;;27.55;16.95;;;;;;;18.96;100.00;101674.91;5054967;28;20028;-50
2022/07/21 01:25:35;;;;;;;31.25;17.33;;;;;;;18.93;100.00;101688.84;5053823;28;20569;-50
2022/07/21 01:28:00;;;;;;;22.23;16.30;;;;;;;18.86;100.00;101675.25;5055890;28;20498;-50
2022/07/21 01:30:26;;;;;;;25.88;15.85;;;;;;;18.82;100.00;101679.34;5056385;28;20330;-51
2022/07/21 01:32:51;;;;;;;23.58;16.20;;;;;;;18.77;100.00;101685.34;5056189;28;20201;-50
2022/07/21 01:35:17;;;;;;;23.10;15.77;;;;;;;18.70;100.00;101675.50;5047122;28;20052;-51
2022/07/21 01:37:47;;;;;;;28.13;16.05;;;;;;;18.66;100.00;101669.63;5061006;28;20031;-47
2022/07/21 01:42:57;;;;;;;24.60;16.20;;;;;;;18.59;100.00;101677.69;5056520;28;20059;-50
2022/07/21 01:45:23;;;;;;;26.85;16.48;;;;;;;18.53;100.00;101675.75;5055946;28;20032;-49
2022/07/21 01:47:49;;;;;;;24.20;16.15;;;;;;;18.57;100.00;101679.75;5060078;28;20016;-50
2022/07/21 01:50:14;;;;;;;28.23;16.58;;;;;;;18.56;100.00;101669.13;5056415;28;20029;-50
2022/07/21 01:52:39;;;;;;;25.67;15.68;;;;;;;18.60;100.00;101668.56;5055624;28;20089;-47
2022/07/21 01:55:05;;;;;;;28.85;16.08;;;;;;;18.61;100.00;101682.91;5049172;28;20025;-50
2022/07/21 01:57:31;;;;;;;28.45;16.95;;;;;;;18.61;100.00;101681.03;5059830;28;20040;-50
2022/07/21 01:59:56;;;;;;;25.00;16.27;;;;;;;18.67;100.00;101681.28;5056093;28;20289;-48
2022/07/21 02:02:21;;;;;;;23.48;15.65;;;;;;;18.65;100.00;101681.47;5055527;28;20214;-49
2022/07/21 02:04:50;;;;;;;22.95;16.05;;;;;;;18.62;100.00;101688.13;5054907;28;20032;-51
2022/07/21 02:07:15;;;;;;;28.92;16.77;;;;;;;18.60;100.00;101681.22;5056163;28;20312;-50
2022/07/21 02:09:41;;;;;;;24.00;16.40;;;;;;;18.62;100.00;101681.88;5055345;28;20534;-51
2022/07/21 02:12:06;;;;;;;24.25;16.15;;;;;;;18.65;100.00;101678.78;5059258;28;20023;-51
2022/07/21 02:14:32;;;;;;;28.77;16.67;;;;;;;18.67;100.00;101690.25;5046226;28;20020;-50
2022/07/21 02:16:57;;;;;;;26.02;16.40;;;;;;;18.61;100.00;101683.72;5055280;28;20432;-49
2022/07/21 02:19:22;;;;;;;26.48;16.83;;;;;;;18.57;100.00;101687.03;5059763;28;20035;-50
2022/07/21 02:21:48;;;;;;;24.27;15.95;;;;;;;18.54;100.00;101674.72;5054540;28;20600;-51
2022/07/21 02:24:13;;;;;;;22.88;17.10;;;;;;;18.53;100.00;101681.16;5049656;28;20652;-51
2022/07/21 02:26:38;;;;;;;26.65;17.70;;;;;;;18.51;100.00;101675.09;5055758;28;20020;-47
2022/07/21 02:29:04;;;;;;;30.20;17.15;;;;;;;18.54;100.00;101671.19;5052311;28;20598;-48
2022/07/21 02:31:29;;;;;;;26.55;16.55;;;;;;;18.54;100.00;101668.50;5056095;28;20032;-47
2022/07/21 02:33:54;;;;;;;28.20;16.98;;;;;;;18.52;100.00;101665.97;5055078;28;20012;-48
2022/07/21 02:36:19;;;;;;;28.20;17.55;;;;;;;18.54;100.00;101674.72;5055619;28;20028;-46
2022/07/21 02:38:45;;;;;;;28.00;17.33;;;;;;;18.52;100.00;101675.97;5055004;28;20059;-53
2022/07/21 02:41:10;;;;;;;26.00;16.58;;;;;;;18.54;100.00;101673.91;5064735;28;20036;-52
2022/07/21 02:43:35;;;;;;;24.67;17.52;;;;;;;18.60;100.00;101663.13;5067504;28;20028;-52
2022/07/21 02:46:01;;;;;;;28.25;17.10;;;;;;;18.63;100.00;101660.06;5059321;28;20028;-52
2022/07/21 02:48:26;;;;;;;27.35;17.00;;;;;;;18.64;100.00;101655.47;5058468;28;20028;-53
2022/07/21 02:50:52;;;;;;;28.27;17.52;;;;;;;18.61;100.00;101670.22;5059419;28;20579;-53
2022/07/21 02:53:19;;;;;;;26.42;17.48;;;;;;;18.59;100.00;101666.03;5069606;28;20020;-52
2022/07/21 02:55:46;;;;;;;32.10;18.02;;;;;;;18.56;100.00;101661.84;5059084;28;20384;-52
2022/07/21 02:58:14;;;;;;;27.10;17.90;;;;;;;18.57;100.00;101655.41;5073817;28;20044;-53
2022/07/21 03:00:48;;;;;;;30.30;18.42;;;;;;;18.56;100.00;101650.19;5057758;28;20028;-52
2022/07/21 03:03:13;;;;;;;29.25;18.58;;;;;;;18.52;100.00;101647.03;5057210;28;20360;-53
2022/07/21 03:05:39;;;;;;;30.48;18.38;;;;;;;18.45;100.00;101638.88;5059672;28;20044;-53
2022/07/21 03:08:06;;;;;;;31.30;18.40;;;;;;;18.44;100.00;101648.00;5057528;28;20023;-52
2022/07/21 03:10:32;;;;;;;33.20;19.23;;;;;;;18.41;100.00;101643.00;5059670;28;20109;-53
2022/07/21 03:12:57;;;;;;;32.50;19.80;;;;;;;18.38;100.00;101648.78;5053855;28;20033;-51
2022/07/21 03:15:22;;;;;;;34.20;20.38;;;;;;;18.34;100.00;101650.19;5058665;28;20554;-52
2022/07/21 03:17:48;;;;;;;37.78;20.25;;;;;;;18.31;100.00;101664.09;5057768;28;20047;-52
2022/07/21 03:20:14;;;;;;;33.00;20.63;;;;;;;18.29;100.00;101654.50;5058115;28;20020;-53
2022/07/21 03:22:39;;;;;;;35.42;21.15;;;;;;;18.30;100.00;101645.38;5057533;28;20036;-53
2022/07/21 03:25:05;;;;;;;35.80;21.65;;;;;;;18.27;100.00;101655.53;5054381;28;20062;-52
2022/07/21 03:27:31;;;;;;;37.53;21.70;;;;;;;18.25;100.00;101654.06;5060189;28;20008;-52
2022/07/21 03:29:56;;;;;;;37.03;22.55;;;;;;;18.23;100.00;101659.66;5057824;28;20127;-52
2022/07/21 03:32:21;;;;;;;36.53;21.58;;;;;;;18.25;100.00;101660.28;5052756;28;20055;-48
2022/07/21 03:34:47;;;;;;;40.28;22.23;;;;;;;18.27;100.00;101658.22;5056490;28;20021;-50
2022/07/21 03:37:12;;;;;;;37.55;21.52;;;;;;;18.30;100.00;101669.72;5052738;28;20489;-53
2022/07/21 03:39:38;;;;;;;38.33;22.55;;;;;;;18.32;100.00;101670.34;5055316;28;20028;-48
2022/07/21 03:42:03;;;;;;;39.20;22.55;;;;;;;18.30;100.00;101659.72;5054775;28;20034;-49
2022/07/21 03:44:28;;;;;;;37.40;21.48;;;;;;;18.31;100.00;101665.97;5057521;28;20028;-48
2022/07/21 03:46:54;;;;;;;42.35;22.45;;;;;;;18.34;100.00;101661.00;5061023;28;20031;-49
2022/07/21 03:49:19;;;;;;;43.28;21.65;;;;;;;18.37;100.00;101662.50;5054695;28;20024;-48
2022/07/21 03:51:44;;;;;;;37.47;21.88;;;;;;;18.43;100.00;101664.41;5056507;28;20043;-50
2022/07/21 03:54:10;;;;;;;37.13;21.48;;;;;;;18.44;100.00;101666.09;5053221;28;20064;-46
2022/07/21 03:56:35;;;;;;;37.25;22.10;;;;;;;18.44;100.00;101666.09;5054890;28;20459;-47
2022/07/21 03:59:00;;;;;;;37.50;21.77;;;;;;;18.48;100.00;101672.78;5054634;28;20528;-49
2022/07/21 04:01:26;;;;;;;36.95;21.83;;;;;;;18.51;100.00;101672.41;5055550;28;20040;-49
2022/07/21 04:03:51;;;;;;;34.22;20.95;;;;;;;18.59;100.00;101674.97;5055484;28;20095;-50
2022/07/21 04:06:16;;;;;;;35.08;21.15;;;;;;;18.59;100.00;101676.84;5053898;28;20487;-50
2022/07/21 04:08:42;;;;;;;35.92;21.23;;;;;;;18.58;100.00;101676.00;5053570;28;20013;-51
2022/07/21 04:11:07;;;;;;;42.90;20.52;;;;;;;18.59;100.00;101674.16;5053053;28;20378;-49
2022/07/21 04:13:32;;;;;;;40.25;21.63;;;;;;;18.59;100.00;101677.69;5055508;28;20012;-47
2022/07/21 04:15:57;;;;;;;37.45;20.63;;;;;;;18.56;100.00;101671.84;5053020;28;20029;-46
2022/07/21 04:18:23;;;;;;;36.25;19.80;;;;;;;18.54;100.00;101676.59;5051453;28;20012;-50
2022/07/21 04:20:48;;;;;;;39.92;20.92;;;;;;;18.48;100.00;101661.97;5056783;28;20270;-50
2022/07/21 04:23:13;;;;;;;38.13;21.20;;;;;;;18.45;100.00;101662.38;5054056;28;20017;-48
2022/07/21 04:25:39;;;;;;;35.00;20.58;;;;;;;18.43;100.00;101657.16;5055092;28;20055;-51
2022/07/21 04:28:05;;;;;;;34.05;19.92;;;;;;;18.40;100.00;101670.22;5055212;28;20013;-48
2022/07/21 04:30:31;;;;;;;33.58;18.80;;;;;;;18.41;100.00;101671.88;5055885;28;20080;-48
2022/07/21 04:32:56;;;;;;;34.35;19.67;;;;;;;18.39;100.00;101665.84;5055975;28;20028;-50
2022/07/21 04:35:22;;;;;;;33.85;19.08;;;;;;;18.41;100.00;101659.22;5045127;28;20145;-51
2022/07/21 04:37:48;;;;;;;34.97;19.13;;;;;;;18.45;100.00;101679.44;5053597;28;20020;-49
2022/07/21 04:40:13;;;;;;;37.90;19.55;;;;;;;18.45;100.00;101665.91;5052902;28;20237;-53
2022/07/21 04:42:39;;;;;;;39.83;19.48;;;;;;;18.44;100.00;101663.41;5047893;28;20025;-52
2022/07/21 04:45:06;;;;;;;33.67;19.20;;;;;;;18.43;100.00;101675.22;5052288;28;20088;-50
2022/07/21 04:47:31;;;;;;;34.72;19.63;;;;;;;18.36;100.00;101672.47;5051053;28;20545;-50
2022/07/21 04:49:57;;;;;;;34.95;19.00;;;;;;;18.36;100.00;101668.94;5055011;28;20029;-49
2022/07/21 04:52:22;;;;;;;38.25;19.63;;;;;;;18.35;100.00;101675.38;5053893;28;20579;-47
2022/07/21 04:54:48;;;;;;;30.65;18.75;;;;;;;18.36;100.00;101687.84;5057755;28;20772;-50
2022/07/21 04:57:13;;;;;;;30.17;18.25;;;;;;;18.34;100.00;101682.63;5061799;28;20097;-48
2022/07/21 04:59:38;;;;;;;33.53;18.48;;;;;;;18.30;100.00;101675.94;5056377;28;20093;-49
2022/07/21 05:02:05;;;;;;;33.67;18.50;;;;;;;18.35;100.00;101683.50;5054197;28;20426;-47
2022/07/21 05:04:30;;;;;;;31.67;17.42;;;;;;;18.36;100.00;101677.88;5063964;28;20028;-50
2022/07/21 05:06:56;;;;;;;30.52;17.80;;;;;;;18.38;100.00;101683.09;5066010;28;20540;-48
2022/07/21 05:09:21;;;;;;;31.10;18.25;;;;;;;18.43;100.00;101684.22;5051681;28;20029;-50
2022/07/21 05:11:47;;;;;;;32.17;17.33;;;;;;;18.45;100.00;101681.31;5052621;28;20032;-50
2022/07/21 05:14:12;;;;;;;30.05;16.90;;;;;;;18.42;100.00;101682.53;5056642;28;20139;-50
2022/07/21 05:16:38;;;;;;;29.75;16.73;;;;;;;18.41;100.00;101675.44;5056326;28;20056;-51
2022/07/21 05:19:03;;;;;;;30.55;16.25;;;;;;;18.40;100.00;101675.66;5056805;28;20032;-50
2022/07/21 05:21:28;;;;;;;30.55;16.25;;;;;;;18.42;100.00;101674.41;5056883;28;20368;-48
2022/07/21 05:23:54;;;;;;;29.83;16.55;;;;;;;18.49;100.00;101669.06;5054589;28;20494;-49
2022/07/21 05:26:19;;;;;;;33.42;16.02;;;;;;;18.51;100.00;101667.00;5054531;28;20028;-50
2022/07/21 05:28:44;;;;;;;28.33;15.10;;;;;;;18.51;100.00;101663.47;5051442;28;20020;-50
2022/07/21 05:31:10;;;;;;;32.53;16.20;;;;;;;18.54;100.00;101669.31;5053230;28;20188;-48
2022/07/21 05:33:36;;;;;;;26.50;14.77;;;;;;;18.58;100.00;101667.06;5048412;28;20267;-50
2022/07/21 05:36:02;;;;;;;30.40;15.52;;;;;;;18.58;100.00;101665.19;5052274;28;20032;-48
2022/07/21 05:38:27;;;;;;;34.28;16.23;;;;;;;18.57;100.00;101666.22;5061696;28;20028;-50
2022/07/21 05:40:53;;;;;;;29.90;14.85;;;;;;;18.60;100.00;101667.69;5041605;28;20507;-51
2022/07/21 05:43:18;;;;;;;30.58;14.98;;;;;;;18.56;100.00;101664.53;5051305;28;20024;-47
2022/07/21 05:45:43;;;;;;;34.67;15.77;;;;;;;18.58;100.00;101669.75;5050376;28;20024;-51
2022/07/21 05:48:09;;;;;;;29.75;15.50;;;;;;;18.61;100.00;101670.22;5053244;28;20021;-49
2022/07/21 05:50:34;;;;;;;32.10;15.60;;;;;;;18.60;100.00;101668.56;5052081;28;20024;-51
2022/07/21 05:52:59;;;;;;;31.30;15.80;;;;;;;18.63;100.00;101667.31;5053713;28;20138;-47
2022/07/21 05:55:25;;;;;;;29.40;15.95;;;;;;;18.65;100.00;101670.66;5055033;28;20039;-46
2022/07/21 05:57:50;;;;;;;33.30;17.05;;;;;;;18.69;100.00;101661.13;5053161;28;20239;-49
2022/07/21 06:00:16;;;;;;;32.47;17.15;;;;;;;18.73;100.00;101665.09;5056248;28;20043;-51
2022/07/21 06:02:45;;;;;;;33.10;16.48;;;;;;;18.79;100.00;101669.75;5049395;28;20044;-49
2022/07/21 06:05:10;;;;;;;32.47;17.20;;;;;;;18.84;100.00;101658.38;5052692;28;20024;-49
2022/07/21 06:07:37;;;;;;;33.60;17.13;;;;;;;18.89;100.00;101661.34;5052759;28;20348;-48
2022/07/21 06:10:02;;;;;;;41.30;17.63;;;;;;;18.90;100.00;101652.16;5051999;28;20112;-49
2022/07/21 06:12:28;;;;;;;36.20;17.27;;;;;;;18.98;100.00;101659.31;5054040;28;20520;-49
2022/07/21 06:14:55;;;;;;;33.00;17.38;;;;;;;19.00;100.00;101654.53;5048913;28;20032;-47
2022/07/21 06:17:20;;;;;;;38.58;17.10;;;;;;;19.08;100.00;101645.44;5055442;28;20016;-49
2022/07/21 06:19:45;;;;;;;35.38;17.35;;;;;;;19.22;100.00;101649.88;5057807;28;20503;-52
2022/07/21 06:22:10;;;;;;;30.23;17.08;;;;;;;19.34;100.00;101648.28;5057787;28;20024;-50
2022/07/21 06:24:36;;;;;;;32.90;17.08;;;;;;;19.48;100.00;101654.59;5056352;28;20505;-50
2022/07/21 06:27:01;;;;;;;30.60;16.40;;;;;;;19.48;100.00;101651.06;5058878;28;20028;-52
2022/07/21 06:29:27;;;;;;;35.42;16.27;;;;;;;19.56;100.00;101661.75;5063711;28;20017;-52
2022/07/21 06:31:52;;;;;;;34.70;16.88;;;;;;;19.64;100.00;101652.63;5058766;28;20028;-47
2022/07/21 06:34:17;;;;;;;34.75;16.92;;;;;;;19.80;100.00;101655.00;5070701;28;20453;-50
2022/07/21 06:36:43;;;;;;;33.58;16.90;;;;;;;20.00;100.00;101651.53;5056761;28;20020;-52
2022/07/21 06:39:08;;;;;;;39.75;17.60;;;;;;;20.07;100.00;101660.50;5061967;28;20050;-50
2022/07/21 06:41:33;;;;;;;38.78;18.92;;;;;;;20.24;100.00;101659.09;5064290;28;20029;-53
2022/07/21 06:43:59;;;;;;;37.70;18.42;;;;;;;20.36;100.00;101659.31;5065174;28;20579;-51
2022/07/21 06:46:24;;;;;;;42.28;19.98;;;;;;;20.31;100.00;101662.69;5057582;28;20115;-50
2022/07/21 06:48:49;;;;;;;40.00;20.88;;;;;;;20.30;100.00;101663.72;5054701;28;20021;-49
2022/07/21 06:51:15;;;;;;;41.80;20.98;;;;;;;20.36;100.00;101670.19;5055663;28;20447;-48
2022/07/21 06:53:42;;;;;;;44.28;20.73;;;;;;;20.47;100.00;101677.72;5055397;28;20086;-52
2022/07/21 06:56:08;;;;;;;48.00;21.48;;;;;;;20.52;100.00;101679.81;5054887;28;20023;-49
2022/07/21 06:58:34;;;;;;;49.80;21.38;;;;;;;20.42;100.00;101679.38;5059485;28;20471;-50
2022/07/21 07:00:59;;;;;;;44.63;21.83;;;;;;;20.30;100.00;101673.72;5059228;28;20433;-50
2022/07/21 07:03:24;;;;;;;47.75;21.98;;;;;;;20.36;100.00;101686.44;5059262;28;20585;-50
2022/07/21 07:05:50;;;;;;;46.85;22.17;;;;;;;20.37;100.00;101684.59;5059462;28;20025;-50
2022/07/21 07:08:16;;;;;;;50.17;23.85;;;;;;;20.25;100.00;101689.78;5056498;28;20048;-49
2022/07/21 07:10:42;;;;;;;47.80;23.27;;;;;;;20.16;100.00;101691.81;5059718;28;20467;-46
2022/07/21 07:13:08;;;;;;;47.65;22.50;;;;;;;20.11;100.00;101678.91;5057529;28;20157;-49
2022/07/21 07:15:33;;;;;;;46.50;24.00;;;;;;;20.28;100.00;101686.63;5058142;28;20433;-50
2022/07/21 07:17:58;;;;;;;50.67;24.73;;;;;;;20.37;100.00;101690.84;5058384;28;20028;-52
2022/07/21 07:20:24;;;;;;;51.05;25.45;;;;;;;20.33;100.00;101692.28;5058396;28;20024;-51
2022/07/21 07:22:50;;;;;;;54.42;25.02;;;;;;;20.22;100.00;101687.47;5058064;28;20032;-49
2022/07/21 07:25:17;;;;;;;50.30;23.67;;;;;;;20.31;100.00;101687.09;5057237;28;20411;-51
2022/07/21 07:27:44;;;;;;;43.28;23.80;;;;;;;20.36;100.00;101693.75;5058933;28;20016;-51
2022/07/21 07:30:10;;;;;;;53.90;24.75;;;;;;;20.26;100.00;101676.00;5062142;28;20024;-53
2022/07/21 07:32:35;;;;;;;55.20;25.48;;;;;;;20.25;100.00;101693.31;5055764;28;20044;-50
2022/07/21 07:35:01;;;;;;;57.60;26.17;;;;;;;20.02;100.00;101676.56;5060626;28;20020;-51
2022/07/21 07:37:26;;;;;;;57.38;25.80;;;;;;;19.92;100.00;101693.22;5057123;28;20112;-52
2022/07/21 07:39:51;;;;;;;58.83;27.15;;;;;;;19.79;100.00;101682.31;5058941;28;20040;-51
2022/07/21 07:42:16;;;;;;;63.65;28.60;;;;;;;19.57;100.00;101691.34;5057891;28;20035;-50
2022/07/21 07:44:42;;;;;;;52.78;25.58;;;;;;;19.47;100.00;101687.34;5059086;28;20012;-51
2022/07/21 07:47:07;;;;;;;60.40;25.95;;;;;;;19.43;100.00;101691.47;5057564;28;20181;-50
2022/07/21 07:49:32;;;;;;;52.85;26.60;;;;;;;19.44;100.00;101680.44;5057961;28;20024;-48
2022/07/21 07:51:58;;;;;;;63.10;27.50;;;;;;;19.44;100.00;101685.84;5057847;28;20518;-50
2022/07/21 07:54:23;;;;;;;47.97;22.48;;;;;;;19.40;100.00;101695.44;5049002;28;20059;-49
2022/07/21 07:56:48;;;;;;;52.20;24.45;;;;;;;19.35;100.00;101700.59;5038973;28;20090;-51
2022/07/21 07:59:14;;;;;;;43.78;23.90;;;;;;;19.18;100.00;101698.19;5043572;28;20309;-47
2022/07/21 08:01:40;;;;;;;56.10;25.02;;;;;;;19.06;100.00;101701.63;5045464;28;20100;-49
2022/07/21 08:04:06;;;;;;;33.33;14.88;;;;;;;18.87;100.00;101706.69;5048973;28;20479;-50
2022/07/21 08:06:31;;;;;;;28.85;15.40;;;;;;;18.67;100.00;101694.81;5039497;28;20070;-49
2022/07/21 08:08:56;;;;;;;29.17;15.93;;;;;;;18.60;100.00;101701.03;5044288;28;20511;-51
2022/07/21 08:11:22;;;;;;;31.38;15.30;;;;;;;18.50;100.00;101702.34;5044313;28;20025;-51
2022/07/21 08:13:47;;;;;;;27.35;15.48;;;;;;;18.42;100.00;101706.88;5057702;28;20009;-50
2022/07/21 08:16:15;;;;;;;25.98;14.60;;;;;;;18.33;100.00;101701.75;5057064;28;20606;-50
2022/07/21 08:18:44;;;;;;;33.72;15.70;;;;;;;18.25;100.00;101705.44;5057158;28;20024;-48
2022/07/21 08:21:10;;;;;;;26.33;14.63;;;;;;;18.25;100.00;101703.56;5057591;28;20028;-51
2022/07/21 08:23:35;;;;;;;29.98;14.55;;;;;;;18.24;100.00;101709.16;5055750;28;20031;-50
2022/07/21 08:26:01;;;;;;;27.52;15.38;;;;;;;18.31;100.00;101703.81;5056946;28;20364;-50
2022/07/21 08:28:26;;;;;;;24.38;14.88;;;;;;;18.34;100.00;101706.97;5043299;28;20021;-50
2022/07/21 08:30:52;;;;;;;25.42;15.73;;;;;;;18.37;100.00;101703.06;5055803;28;20033;-51
2022/07/21 08:33:17;;;;;;;27.02;15.88;;;;;;;18.42;100.00;101708.75;5060108;28;20619;-49
2022/07/21 08:35:43;;;;;;;23.08;14.93;;;;;;;18.39;100.00;101690.19;5056987;28;20336;-51
2022/07/21 08:38:11;;;;;;;23.00;14.85;;;;;;;18.43;100.00;101704.97;5059635;28;20395;-49
2022/07/21 08:40:45;;;;;;;30.05;15.75;;;;;;;18.46;100.00;101699.19;5052261;28;20573;-48
2022/07/21 08:43:12;;;;;;;30.30;15.55;;;;;;;18.51;100.00;101706.75;5051107;28;20036;-50
2022/07/21 08:45:39;;;;;;;28.73;15.13;;;;;;;18.50;100.00;101705.06;5050516;28;20741;-51
2022/07/21 08:48:05;;;;;;;25.52;14.30;;;;;;;18.50;100.00;101702.34;5055349;28;20028;-51
2022/07/21 08:50:33;;;;;;;27.30;15.65;;;;;;;18.47;100.00;101700.06;5054936;28;20051;-51
2022/07/21 08:52:59;;;;;;;25.08;14.90;;;;;;;18.45;100.00;101703.78;5046379;28;20024;-51
2022/07/21 08:55:24;;;;;;;23.65;14.93;;;;;;;18.45;100.00;101705.66;5048879;28;20039;-45
2022/07/21 08:57:50;;;;;;;26.48;15.23;;;;;;;18.49;100.00;101701.53;5049728;28;20054;-48
2022/07/21 09:00:15;;;;;;;25.42;15.07;;;;;;;18.52;100.00;101705.72;5054073;28;20059;-48
2022/07/21 09:02:41;;;;;;;25.33;15.27;;;;;;;18.48;100.00;101701.72;5052797;28;20040;-50
2022/07/21 09:05:08;;;;;;;25.55;15.55;;;;;;;18.50;100.00;101702.34;5054516;28;20029;-50
2022/07/21 09:07:54;;;;;;;21.67;15.82;;;;;;;18.57;100.00;101700.56;5057949;28;20324;-49
2022/07/21 09:10:26;;;;;;;23.67;15.57;;;;;;;18.64;100.00;101706.88;5059107;28;20347;-49
2022/07/21 09:13:03;;;;;;;23.90;15.98;;;;;;;18.71;100.00;101702.34;5055052;28;20032;-50
2022/07/21 09:15:33;;;;;;;22.77;15.85;;;;;;;18.71;100.00;101699.66;5042926;28;20421;-48
2022/07/21 09:18:14;;;;;;;25.38;15.95;;;;;;;18.84;100.00;101701.69;5060421;28;20626;-49
2022/07/21 09:20:50;;;;;;;23.20;15.75;;;;;;;18.89;100.00;101699.22;5050642;28;20025;-49
2022/07/21 09:23:18;;;;;;;23.05;14.95;;;;;;;18.94;100.00;101707.59;5045019;28;20106;-50
2022/07/21 09:25:49;;;;;;;22.88;15.63;;;;;;;18.99;100.00;101715.97;5042307;28;20025;-50
2022/07/21 09:28:26;;;;;;;25.70;16.58;;;;;;;18.97;100.00;101714.47;5042313;28;20024;-49
2022/07/21 09:30:54;;;;;;;21.08;14.85;;;;;;;18.94;100.00;101714.84;5046846;28;20592;-51
2022/07/21 09:33:33;;;;;;;23.42;16.38;;;;;;;18.95;100.00;101719.25;5052472;28;20637;-50
2022/07/21 09:35:58;;;;;;;21.08;15.27;;;;;;;18.95;100.00;101722.78;5047648;28;20380;-51
2022/07/21 09:38:25;;;;;;;22.63;13.93;;;;;;;18.92;100.00;101720.47;5049322;28;20333;-50
2022/07/21 09:40:51;;;;;;;19.95;13.88;;;;;;;18.93;100.00;101729.44;5055955;28;20173;-48
2022/07/21 09:43:49;;;;;;;15.15;10.20;;;;;;;18.89;100.00;101734.41;5059591;28;20343;-49
2022/07/21 09:46:16;;;;;;;19.65;10.50;;;;;;;18.86;100.00;101731.25;5059616;28;20024;-51
2022/07/21 09:48:45;;;;;;;13.75;9.45;;;;;;;18.73;100.00;101737.34;5048923;28;20451;-47
2022/07/21 09:51:33;;;;;;;13.27;9.90;;;;;;;18.63;100.00;101737.66;5039961;28;20023;-46
2022/07/21 09:54:04;;;;;;;16.00;9.73;;;;;;;18.58;100.00;101738.22;5038934;28;20028;-48
2022/07/21 09:56:31;;;;;;;;;;;;;;;18.60;100.00;101738.91;5040093;28;20073;-49
2022/07/21 09:58:59;;;;;;;13.10;9.10;;;;;;;18.56;100.00;101743.00;5043898;28;20329;-47
2022/07/21 10:01:26;;;;;;;13.85;9.25;;;;;;;18.55;100.00;101744.03;5039465;28;20478;-48
2022/07/21 10:03:52;;;;;;;15.90;8.65;;;;;;;18.53;100.00;101756.91;5049393;28;20047;-51
2022/07/21 10:06:31;;;;;;;13.55;8.52;;;;;;;18.62;100.00;101746.81;5045904;28;20025;-48
2022/07/21 10:08:59;;;;;;;14.15;8.88;;;;;;;18.64;100.00;101755.56;5049738;28;20135;-51
2022/07/21 10:11:26;;;;;;;18.27;9.68;;;;;;;18.57;100.00;101751.97;5049956;28;20016;-51
2022/07/21 10:13:51;;;;;;;13.00;9.77;;;;;;;18.56;100.00;101759.22;5061563;28;20070;-47
2022/07/21 10:16:16;;;;;;;12.25;8.80;;;;;;;18.55;100.00;101759.41;5051637;28;20421;-52
2022/07/21 10:18:58;;;;;;;13.15;8.48;;;;;;;18.49;100.00;101763.75;5053972;28;20021;-48
2022/07/21 10:22:17;;;;;;;10.00;7.80;;;;;;;18.56;100.00;101770.06;5057126;28;20068;-50
2022/07/21 10:24:43;;;;;;;20.08;8.25;;;;;;;18.61;100.00;101764.06;5061366;28;20503;-48
2022/07/21 10:27:13;;;;;;;11.25;7.75;;;;;;;18.60;100.00;101776.78;5052153;28;20039;-50
2022/07/21 10:29:48;;;;;;;12.35;7.15;;;;;;;18.53;100.00;101770.44;5056506;28;20396;-48
2022/07/21 10:32:18;;;;;;;12.10;8.15;;;;;;;18.45;100.00;101773.28;5054264;28;20028;-49
2022/07/21 10:34:44;;;;;;;11.88;8.63;;;;;;;18.43;100.00;101780.72;5053786;28;20035;-51
2022/07/21 10:37:10;;;;;;;18.05;9.55;;;;;;;18.44;100.00;101783.22;5053575;28;20215;-48
2022/07/21 10:39:37;;;;;;;14.00;9.32;;;;;;;18.54;100.00;101779.41;5053465;28;20061;-47
2022/07/21 10:42:15;;;;;;;18.48;9.27;;;;;;;18.65;100.00;101784.28;5051117;28;20047;-51
2022/07/21 10:44:45;;;;;;;13.63;9.10;;;;;;;18.66;100.00;101782.44;5054379;28;20011;-47
2022/07/21 10:47:23;;;;;;;14.05;9.70;;;;;;;18.72;100.00;101793.34;5055655;28;20475;-50
2022/07/21 10:49:53;;;;;;;15.88;10.23;;;;;;;18.73;100.00;101786.88;5044247;28;20063;-47
2022/07/21 10:52:45;;;;;;;19.20;9.30;;;;;;;18.70;100.00;101791.84;5044517;28;20028;-50
2022/07/21 10:55:13;;;;;;;14.25;9.80;;;;;;;18.57;100.00;101790.69;5042304;28;20013;-51
2022/07/21 10:57:44;;;;;;;15.93;9.80;;;;;;;18.51;100.00;101786.00;5041533;28;20036;-48
2022/07/21 11:00:18;;;;;;;18.48;10.98;;;;;;;18.50;100.00;101797.03;5042762;28;20033;-50
2022/07/21 11:02:47;;;;;;;17.52;10.50;;;;;;;18.45;100.00;101798.44;5044329;28;20935;-48